RYR248P EDNY-LEPA
Flight info
| Callsign | RYR248P |
|---|---|
| Flight time | 1h 53m |
| Altitude | 31000 |
| Route | BEMKI1E BEMKI L607 XEBIX Y740 NATAG DCT LORLO DCT ATPED DCT PIDAD DCT TALEP DCT RARQU DCT BALEN UT250 RIXOT |
| Aircraft | A320/M-SDE3FGHIRWY/LB1 |
Departure
| Time | 2026-05-07 04:11 |
|---|---|
| Airport | Bodensee Airport Friedrichshafen (EDNY) |
Arrival
| Time | 2026-05-07 06:04 |
|---|---|
| Airport | Palma de Mallorca Airport (LEPA) |
| Time | Latitude | Longitude | Altitude | Speed | Heading |
|---|---|---|---|---|---|
| 2026-05-07 03:59 | 47.67313 | 9.52238 | 1366 ft | 0 kts | 198° |
| 2026-05-07 04:06 | 47.67311 | 9.52237 | 1366 ft | 1 kts | 201° |
| 2026-05-07 04:06 | 47.67309 | 9.52224 | 1366 ft | 2 kts | 297° |
| 2026-05-07 04:07 | 47.67340 | 9.52178 | 1366 ft | 9 kts | 279° |
| 2026-05-07 04:07 | 47.67305 | 9.52072 | 1366 ft | 13 kts | 239° |
| 2026-05-07 04:07 | 47.67249 | 9.51928 | 1364 ft | 18 kts | 241° |
| 2026-05-07 04:07 | 47.67177 | 9.51742 | 1360 ft | 21 kts | 240° |
| 2026-05-07 04:08 | 47.67100 | 9.51543 | 1358 ft | 22 kts | 240° |
| 2026-05-07 04:08 | 47.67021 | 9.51337 | 1355 ft | 23 kts | 240° |
| 2026-05-07 04:08 | 47.66938 | 9.51127 | 1352 ft | 24 kts | 240° |
| 2026-05-07 04:08 | 47.66855 | 9.50910 | 1351 ft | 23 kts | 241° |
| 2026-05-07 04:09 | 47.66744 | 9.50732 | 1347 ft | 24 kts | 209° |
| 2026-05-07 04:09 | 47.66629 | 9.50551 | 1344 ft | 24 kts | 241° |
| 2026-05-07 04:09 | 47.66542 | 9.50325 | 1339 ft | 25 kts | 241° |
| 2026-05-07 04:09 | 47.66474 | 9.50128 | 1335 ft | 19 kts | 259° |
| 2026-05-07 04:10 | 47.66517 | 9.49936 | 1331 ft | 20 kts | 302° |
| 2026-05-07 04:10 | 47.66618 | 9.49846 | 1330 ft | 18 kts | 40° |
| 2026-05-07 04:10 | 47.66735 | 9.50126 | 1335 ft | 61 kts | 60° |
| 2026-05-07 04:10 | 47.67059 | 9.50958 | 1350 ft | 123 kts | 61° |
| 2026-05-07 04:11 | 47.67578 | 9.52298 | 1398 ft | 170 kts | 60° |
| 2026-05-07 04:11 | 47.68180 | 9.53842 | 1883 ft | 177 kts | 60° |
| 2026-05-07 04:11 | 47.68796 | 9.55415 | 2502 ft | 180 kts | 59° |
| 2026-05-07 04:11 | 47.69414 | 9.57016 | 3118 ft | 182 kts | 59° |
| 2026-05-07 04:12 | 47.70064 | 9.58705 | 3541 ft | 196 kts | 58° |
| 2026-05-07 04:12 | 47.70766 | 9.60517 | 3935 ft | 213 kts | 60° |
| 2026-05-07 04:12 | 47.71322 | 9.62646 | 4357 ft | 230 kts | 78° |
| 2026-05-07 04:12 | 47.71518 | 9.65069 | 4784 ft | 246 kts | 86° |
| 2026-05-07 04:13 | 47.71619 | 9.67692 | 5316 ft | 258 kts | 87° |
| 2026-05-07 04:13 | 47.71710 | 9.70301 | 6157 ft | 257 kts | 86° |
| 2026-05-07 04:13 | 47.71812 | 9.72952 | 6932 ft | 259 kts | 86° |
| 2026-05-07 04:13 | 47.71932 | 9.75603 | 7719 ft | 260 kts | 86° |
| 2026-05-07 04:14 | 47.72060 | 9.78281 | 8454 ft | 263 kts | 87° |
| 2026-05-07 04:14 | 47.72069 | 9.80978 | 9151 ft | 264 kts | 103° |
| 2026-05-07 04:14 | 47.71482 | 9.83510 | 9766 ft | 266 kts | 122° |
| 2026-05-07 04:14 | 47.70515 | 9.85926 | 10176 ft | 281 kts | 126° |
| 2026-05-07 04:15 | 47.69442 | 9.88437 | 10564 ft | 299 kts | 126° |
| 2026-05-07 04:15 | 47.68301 | 9.91147 | 10876 ft | 316 kts | 125° |
| 2026-05-07 04:15 | 47.67141 | 9.94016 | 11215 ft | 333 kts | 122° |
| 2026-05-07 04:15 | 47.66091 | 9.97076 | 11801 ft | 341 kts | 117° |
| 2026-05-07 04:16 | 47.65110 | 10.00290 | 12481 ft | 344 kts | 116° |
| 2026-05-07 04:16 | 47.64133 | 10.03537 | 13093 ft | 348 kts | 116° |
| 2026-05-07 04:16 | 47.63148 | 10.06812 | 13728 ft | 351 kts | 116° |
| 2026-05-07 04:16 | 47.62154 | 10.10106 | 14300 ft | 356 kts | 116° |
| 2026-05-07 04:17 | 47.61132 | 10.13481 | 14929 ft | 359 kts | 116° |
| 2026-05-07 04:17 | 47.60115 | 10.16835 | 15527 ft | 362 kts | 116° |
| 2026-05-07 04:17 | 47.59078 | 10.20237 | 16103 ft | 365 kts | 116° |
| 2026-05-07 04:17 | 47.58031 | 10.23663 | 16671 ft | 368 kts | 116° |
| 2026-05-07 04:18 | 47.56971 | 10.27097 | 17231 ft | 370 kts | 118° |
| 2026-05-07 04:18 | 47.55598 | 10.30282 | 17751 ft | 370 kts | 131° |
| 2026-05-07 04:18 | 47.53785 | 10.32963 | 18302 ft | 368 kts | 143° |
| 2026-05-07 04:18 | 47.51756 | 10.35229 | 18846 ft | 370 kts | 146° |
| 2026-05-07 04:19 | 47.49649 | 10.37489 | 19361 ft | 372 kts | 146° |
| 2026-05-07 04:19 | 47.47567 | 10.39728 | 19888 ft | 375 kts | 146° |
| 2026-05-07 04:19 | 47.45452 | 10.42020 | 20412 ft | 377 kts | 146° |
| 2026-05-07 04:19 | 47.43350 | 10.44311 | 20900 ft | 380 kts | 146° |
| 2026-05-07 04:20 | 47.41146 | 10.46465 | 21398 ft | 379 kts | 155° |
| 2026-05-07 04:20 | 47.38719 | 10.47899 | 21873 ft | 377 kts | 167° |
| 2026-05-07 04:20 | 47.36177 | 10.48576 | 22361 ft | 376 kts | 176° |
| 2026-05-07 04:21 | 47.30968 | 10.49305 | 23274 ft | 380 kts | 177° |
| 2026-05-07 04:21 | 47.28308 | 10.49665 | 23711 ft | 382 kts | 176° |
| 2026-05-07 04:21 | 47.25650 | 10.50033 | 24120 ft | 385 kts | 176° |
| 2026-05-07 04:21 | 47.22985 | 10.50408 | 24518 ft | 387 kts | 176° |
| 2026-05-07 04:22 | 47.20334 | 10.50786 | 24920 ft | 388 kts | 176° |
| 2026-05-07 04:22 | 47.17643 | 10.51171 | 25294 ft | 390 kts | 177° |
| 2026-05-07 04:22 | 47.14923 | 10.51560 | 25664 ft | 391 kts | 177° |
| 2026-05-07 04:22 | 47.12238 | 10.51942 | 26030 ft | 392 kts | 177° |
| 2026-05-07 04:23 | 47.09529 | 10.52327 | 26388 ft | 394 kts | 177° |
| 2026-05-07 04:23 | 47.06811 | 10.52880 | 26731 ft | 396 kts | 173° |
| 2026-05-07 04:23 | 47.04082 | 10.53711 | 27062 ft | 400 kts | 169° |
| 2026-05-07 04:23 | 47.01414 | 10.54805 | 27394 ft | 402 kts | 167° |
| 2026-05-07 04:24 | 46.98751 | 10.56009 | 27736 ft | 403 kts | 167° |
| 2026-05-07 04:24 | 46.96050 | 10.57231 | 28039 ft | 404 kts | 167° |
| 2026-05-07 04:24 | 46.93388 | 10.58437 | 28320 ft | 406 kts | 167° |
| 2026-05-07 04:24 | 46.90673 | 10.59666 | 28622 ft | 406 kts | 167° |
| 2026-05-07 04:25 | 46.87975 | 10.60884 | 28916 ft | 407 kts | 167° |
| 2026-05-07 04:25 | 46.85264 | 10.62104 | 29196 ft | 408 kts | 167° |
| 2026-05-07 04:25 | 46.82590 | 10.63306 | 29478 ft | 409 kts | 167° |
| 2026-05-07 04:25 | 46.79826 | 10.64549 | 29758 ft | 410 kts | 167° |
| 2026-05-07 04:26 | 46.77124 | 10.65628 | 30017 ft | 407 kts | 173° |
| 2026-05-07 04:26 | 46.74321 | 10.66222 | 30271 ft | 404 kts | 180° |
| 2026-05-07 04:26 | 46.71522 | 10.66307 | 30528 ft | 400 kts | 187° |
| 2026-05-07 04:26 | 46.68758 | 10.65899 | 30748 ft | 398 kts | 193° |
| 2026-05-07 04:27 | 46.66063 | 10.65017 | 30920 ft | 397 kts | 198° |
| 2026-05-07 04:27 | 46.63410 | 10.63890 | 30934 ft | 398 kts | 199° |
| 2026-05-07 04:27 | 46.58123 | 10.61588 | 30940 ft | 398 kts | 199° |
| 2026-05-07 04:28 | 46.52842 | 10.59277 | 30933 ft | 399 kts | 199° |
| 2026-05-07 04:28 | 46.47547 | 10.56965 | 30933 ft | 398 kts | 199° |
| 2026-05-07 04:29 | 46.42232 | 10.54648 | 30932 ft | 398 kts | 200° |
| 2026-05-07 04:29 | 46.36924 | 10.52341 | 30936 ft | 396 kts | 200° |
| 2026-05-07 04:30 | 46.31647 | 10.50049 | 30940 ft | 396 kts | 200° |
| 2026-05-07 04:30 | 46.26376 | 10.47764 | 30949 ft | 396 kts | 200° |
| 2026-05-07 04:31 | 46.21114 | 10.45487 | 30960 ft | 396 kts | 200° |
| 2026-05-07 04:31 | 46.15914 | 10.42977 | 30960 ft | 394 kts | 204° |
| 2026-05-07 04:32 | 46.10923 | 10.39788 | 30966 ft | 393 kts | 209° |
| 2026-05-07 04:32 | 46.06016 | 10.36291 | 30967 ft | 394 kts | 208° |
| 2026-05-07 04:33 | 46.01129 | 10.32832 | 30966 ft | 393 kts | 208° |
| 2026-05-07 04:33 | 45.96235 | 10.29366 | 30969 ft | 393 kts | 208° |
| 2026-05-07 04:34 | 45.91334 | 10.25897 | 30970 ft | 394 kts | 208° |
| 2026-05-07 04:34 | 45.86436 | 10.22434 | 30976 ft | 393 kts | 208° |
| 2026-05-07 04:35 | 45.81516 | 10.18962 | 30973 ft | 392 kts | 208° |
| 2026-05-07 04:35 | 45.76622 | 10.15518 | 30973 ft | 392 kts | 208° |
| 2026-05-07 04:36 | 45.71742 | 10.12084 | 30968 ft | 392 kts | 208° |
| 2026-05-07 04:36 | 45.66868 | 10.08664 | 30960 ft | 393 kts | 208° |
| 2026-05-07 04:37 | 45.61940 | 10.05215 | 30949 ft | 393 kts | 208° |
| 2026-05-07 04:37 | 45.57034 | 10.01786 | 30939 ft | 393 kts | 208° |
| 2026-05-07 04:38 | 45.52137 | 9.98370 | 30939 ft | 394 kts | 208° |
| 2026-05-07 04:38 | 45.47198 | 9.94933 | 30938 ft | 394 kts | 208° |
| 2026-05-07 04:39 | 45.42288 | 9.91520 | 30941 ft | 394 kts | 209° |
| 2026-05-07 04:39 | 45.37357 | 9.88099 | 30942 ft | 394 kts | 208° |
| 2026-05-07 04:40 | 45.32457 | 9.84710 | 30940 ft | 394 kts | 209° |
| 2026-05-07 04:40 | 45.27530 | 9.81307 | 30940 ft | 393 kts | 209° |
| 2026-05-07 04:41 | 45.22586 | 9.77899 | 30945 ft | 394 kts | 209° |
| 2026-05-07 04:41 | 45.17646 | 9.74500 | 30939 ft | 394 kts | 209° |
| 2026-05-07 04:42 | 45.12740 | 9.71131 | 30939 ft | 394 kts | 209° |
| 2026-05-07 04:42 | 45.07819 | 9.67757 | 30934 ft | 394 kts | 209° |
| 2026-05-07 04:43 | 45.02896 | 9.64389 | 30932 ft | 394 kts | 209° |
| 2026-05-07 04:43 | 44.97940 | 9.61006 | 30938 ft | 394 kts | 209° |
| 2026-05-07 04:44 | 44.93022 | 9.57655 | 30935 ft | 395 kts | 209° |
| 2026-05-07 04:44 | 44.88072 | 9.54288 | 30933 ft | 395 kts | 209° |
| 2026-05-07 04:45 | 44.83110 | 9.50920 | 30936 ft | 395 kts | 210° |
| 2026-05-07 04:45 | 44.78193 | 9.47588 | 30941 ft | 394 kts | 210° |
| 2026-05-07 04:46 | 44.73266 | 9.44255 | 30942 ft | 394 kts | 209° |
| 2026-05-07 04:46 | 44.68297 | 9.40903 | 30945 ft | 395 kts | 210° |
| 2026-05-07 04:47 | 44.63349 | 9.37569 | 30947 ft | 395 kts | 210° |
| 2026-05-07 04:47 | 44.58421 | 9.34254 | 30942 ft | 395 kts | 209° |
| 2026-05-07 04:48 | 44.53437 | 9.30910 | 30941 ft | 396 kts | 209° |
| 2026-05-07 04:48 | 44.48488 | 9.27597 | 30939 ft | 395 kts | 209° |
| 2026-05-07 04:49 | 44.43538 | 9.24284 | 30936 ft | 396 kts | 209° |
| 2026-05-07 04:49 | 44.38579 | 9.20974 | 30940 ft | 397 kts | 209° |
| 2026-05-07 04:50 | 44.33601 | 9.17660 | 30938 ft | 398 kts | 209° |
| 2026-05-07 04:50 | 44.28608 | 9.14341 | 30936 ft | 398 kts | 209° |
| 2026-05-07 04:51 | 44.23622 | 9.11032 | 30939 ft | 398 kts | 209° |
| 2026-05-07 04:51 | 44.18613 | 9.07714 | 30941 ft | 399 kts | 209° |
| 2026-05-07 04:52 | 44.13610 | 9.04407 | 30945 ft | 398 kts | 209° |
| 2026-05-07 04:52 | 44.08628 | 9.01121 | 30943 ft | 397 kts | 209° |
| 2026-05-07 04:53 | 44.03632 | 8.97832 | 30942 ft | 397 kts | 210° |
| 2026-05-07 04:53 | 43.98651 | 8.94558 | 30936 ft | 397 kts | 210° |
| 2026-05-07 04:54 | 43.93665 | 8.91286 | 30938 ft | 397 kts | 210° |
| 2026-05-07 04:54 | 43.88674 | 8.88019 | 30936 ft | 399 kts | 210° |
| 2026-05-07 04:55 | 43.83668 | 8.84745 | 30935 ft | 399 kts | 210° |
| 2026-05-07 04:55 | 43.78635 | 8.81461 | 30936 ft | 398 kts | 210° |
| 2026-05-07 04:56 | 43.73654 | 8.78218 | 30934 ft | 398 kts | 210° |
| 2026-05-07 04:56 | 43.68608 | 8.75006 | 30932 ft | 400 kts | 207° |
| 2026-05-07 04:57 | 43.63314 | 8.72646 | 30935 ft | 405 kts | 199° |
| 2026-05-07 04:57 | 43.57702 | 8.71422 | 30934 ft | 412 kts | 191° |
| 2026-05-07 04:58 | 43.51955 | 8.71044 | 30932 ft | 409 kts | 194° |
| 2026-05-07 04:58 | 43.46561 | 8.69134 | 30935 ft | 398 kts | 207° |
| 2026-05-07 04:59 | 43.41807 | 8.65476 | 30937 ft | 390 kts | 221° |
| 2026-05-07 04:59 | 43.37727 | 8.60661 | 30938 ft | 388 kts | 225° |
| 2026-05-07 05:00 | 43.33691 | 8.55701 | 30934 ft | 388 kts | 225° |
| 2026-05-07 05:00 | 43.29675 | 8.50762 | 30929 ft | 388 kts | 225° |
| 2026-05-07 05:01 | 43.25670 | 8.45839 | 30932 ft | 387 kts | 225° |
| 2026-05-07 05:01 | 43.21671 | 8.40931 | 30932 ft | 388 kts | 225° |
| 2026-05-07 05:02 | 43.17664 | 8.36017 | 30935 ft | 387 kts | 225° |
| 2026-05-07 05:02 | 43.13644 | 8.31100 | 30927 ft | 388 kts | 225° |
| 2026-05-07 05:03 | 43.09617 | 8.26182 | 30927 ft | 388 kts | 225° |
| 2026-05-07 05:03 | 43.05604 | 8.21289 | 30930 ft | 387 kts | 225° |
| 2026-05-07 05:04 | 43.01608 | 8.16426 | 30930 ft | 388 kts | 225° |
| 2026-05-07 05:04 | 42.97567 | 8.11518 | 30928 ft | 388 kts | 225° |
| 2026-05-07 05:05 | 42.93564 | 8.06662 | 30921 ft | 387 kts | 225° |
| 2026-05-07 05:05 | 42.89546 | 8.01800 | 30920 ft | 387 kts | 225° |
| 2026-05-07 05:06 | 42.85495 | 7.96905 | 30925 ft | 387 kts | 225° |
| 2026-05-07 05:06 | 42.81500 | 7.92086 | 30928 ft | 387 kts | 225° |
| 2026-05-07 05:07 | 42.77471 | 7.87237 | 30926 ft | 387 kts | 225° |
| 2026-05-07 05:07 | 42.73429 | 7.82379 | 30933 ft | 387 kts | 225° |
| 2026-05-07 05:08 | 42.69396 | 7.77543 | 30938 ft | 388 kts | 225° |
| 2026-05-07 05:08 | 42.65342 | 7.72687 | 30945 ft | 389 kts | 225° |
| 2026-05-07 05:09 | 42.61306 | 7.67866 | 30941 ft | 389 kts | 225° |
| 2026-05-07 05:09 | 42.57249 | 7.63026 | 30944 ft | 389 kts | 225° |
| 2026-05-07 05:10 | 42.53186 | 7.58186 | 30950 ft | 388 kts | 225° |
| 2026-05-07 05:10 | 42.49144 | 7.53383 | 30948 ft | 389 kts | 225° |
| 2026-05-07 05:11 | 42.45077 | 7.48555 | 30948 ft | 389 kts | 225° |
| 2026-05-07 05:11 | 42.41001 | 7.43727 | 30947 ft | 389 kts | 225° |
| 2026-05-07 05:12 | 42.36933 | 7.38919 | 30949 ft | 389 kts | 225° |
| 2026-05-07 05:12 | 42.32866 | 7.34121 | 30952 ft | 389 kts | 224° |
| 2026-05-07 05:13 | 42.28801 | 7.29333 | 30948 ft | 390 kts | 224° |
| 2026-05-07 05:13 | 42.24721 | 7.24534 | 30951 ft | 390 kts | 224° |
| 2026-05-07 05:14 | 42.20633 | 7.19735 | 30949 ft | 390 kts | 224° |
| 2026-05-07 05:14 | 42.16531 | 7.14927 | 30952 ft | 390 kts | 224° |
| 2026-05-07 05:15 | 42.12468 | 7.10174 | 30952 ft | 390 kts | 224° |
| 2026-05-07 05:15 | 42.08375 | 7.05394 | 30957 ft | 388 kts | 224° |
| 2026-05-07 05:16 | 42.04302 | 7.00651 | 30960 ft | 388 kts | 224° |
| 2026-05-07 05:16 | 42.00244 | 6.95847 | 30955 ft | 388 kts | 226° |
| 2026-05-07 05:17 | 41.96280 | 6.90961 | 30963 ft | 388 kts | 226° |
| 2026-05-07 05:17 | 41.92322 | 6.86091 | 30963 ft | 389 kts | 226° |
| 2026-05-07 05:18 | 41.88306 | 6.81170 | 30962 ft | 390 kts | 226° |
| 2026-05-07 05:18 | 41.84304 | 6.76281 | 30958 ft | 390 kts | 226° |
| 2026-05-07 05:19 | 41.80312 | 6.71412 | 30961 ft | 390 kts | 226° |
| 2026-05-07 05:19 | 41.76295 | 6.66523 | 30960 ft | 390 kts | 225° |
| 2026-05-07 05:20 | 41.72285 | 6.61651 | 30956 ft | 390 kts | 225° |
| 2026-05-07 05:20 | 41.68256 | 6.56766 | 30958 ft | 390 kts | 226° |
| 2026-05-07 05:21 | 41.62252 | 6.49503 | 30968 ft | 389 kts | 226° |
| 2026-05-07 05:22 | 41.58257 | 6.44678 | 30973 ft | 390 kts | 226° |
| 2026-05-07 05:22 | 41.54227 | 6.39820 | 30978 ft | 390 kts | 226° |
| 2026-05-07 05:23 | 41.50209 | 6.34987 | 30978 ft | 391 kts | 225° |
| 2026-05-07 05:23 | 41.46168 | 6.30132 | 30979 ft | 391 kts | 225° |
| 2026-05-07 05:24 | 41.42140 | 6.25304 | 30979 ft | 392 kts | 225° |
| 2026-05-07 05:24 | 41.38074 | 6.20438 | 30978 ft | 392 kts | 225° |
| 2026-05-07 05:25 | 41.34042 | 6.15620 | 30979 ft | 391 kts | 225° |
| 2026-05-07 05:25 | 41.29993 | 6.10790 | 30981 ft | 391 kts | 225° |
| 2026-05-07 05:26 | 41.25955 | 6.05982 | 30977 ft | 391 kts | 225° |
| 2026-05-07 05:26 | 41.21912 | 6.01175 | 30980 ft | 391 kts | 225° |
| 2026-05-07 05:27 | 41.17848 | 5.96353 | 30974 ft | 391 kts | 225° |
| 2026-05-07 05:27 | 41.13803 | 5.91563 | 30974 ft | 391 kts | 225° |
| 2026-05-07 05:28 | 41.09758 | 5.86780 | 30979 ft | 391 kts | 225° |
| 2026-05-07 05:28 | 41.05712 | 5.82006 | 30978 ft | 391 kts | 225° |
| 2026-05-07 05:29 | 41.01639 | 5.77207 | 30977 ft | 392 kts | 225° |
| 2026-05-07 05:29 | 40.97627 | 5.72365 | 30974 ft | 391 kts | 227° |
| 2026-05-07 05:30 | 40.93940 | 5.67116 | 30978 ft | 389 kts | 232° |
| 2026-05-07 05:30 | 40.90648 | 5.61451 | 30967 ft | 388 kts | 236° |
| 2026-05-07 05:31 | 40.87526 | 5.55644 | 30968 ft | 388 kts | 236° |
| 2026-05-07 05:31 | 40.84398 | 5.49834 | 30981 ft | 388 kts | 236° |
| 2026-05-07 05:32 | 40.81279 | 5.44042 | 30965 ft | 388 kts | 237° |
| 2026-05-07 05:32 | 40.78173 | 5.38277 | 30970 ft | 388 kts | 236° |
| 2026-05-07 05:33 | 40.75057 | 5.32508 | 30969 ft | 388 kts | 236° |
| 2026-05-07 05:33 | 40.71922 | 5.26710 | 30975 ft | 389 kts | 236° |
| 2026-05-07 05:34 | 40.68776 | 5.20899 | 30963 ft | 389 kts | 236° |
| 2026-05-07 05:34 | 40.65641 | 5.15126 | 30976 ft | 389 kts | 236° |
| 2026-05-07 05:34 | 40.64067 | 5.12229 | 30816 ft | 390 kts | 236° |
| 2026-05-07 05:35 | 40.62506 | 5.09357 | 30397 ft | 386 kts | 236° |
| 2026-05-07 05:35 | 40.60946 | 5.06491 | 29962 ft | 383 kts | 236° |
| 2026-05-07 05:35 | 40.59405 | 5.03663 | 29527 ft | 382 kts | 236° |
| 2026-05-07 05:35 | 40.57866 | 5.00843 | 29039 ft | 379 kts | 236° |
| 2026-05-07 05:36 | 40.56342 | 4.98052 | 28560 ft | 376 kts | 236° |
| 2026-05-07 05:36 | 40.54843 | 4.95310 | 28072 ft | 373 kts | 236° |
| 2026-05-07 05:36 | 40.53339 | 4.92558 | 27566 ft | 369 kts | 236° |
| 2026-05-07 05:36 | 40.51857 | 4.89849 | 27074 ft | 366 kts | 236° |
| 2026-05-07 05:37 | 40.50378 | 4.87151 | 26593 ft | 363 kts | 236° |
| 2026-05-07 05:37 | 40.48919 | 4.84492 | 26119 ft | 360 kts | 236° |
| 2026-05-07 05:37 | 40.47451 | 4.81818 | 25636 ft | 357 kts | 236° |
| 2026-05-07 05:37 | 40.46009 | 4.79192 | 25159 ft | 354 kts | 236° |
| 2026-05-07 05:38 | 40.44568 | 4.76571 | 24679 ft | 351 kts | 236° |
| 2026-05-07 05:38 | 40.43147 | 4.73988 | 24214 ft | 348 kts | 236° |
| 2026-05-07 05:38 | 40.41750 | 4.71450 | 23750 ft | 346 kts | 236° |
| 2026-05-07 05:38 | 40.40341 | 4.68892 | 23287 ft | 343 kts | 236° |
| 2026-05-07 05:39 | 40.38964 | 4.66392 | 22850 ft | 342 kts | 236° |
| 2026-05-07 05:39 | 40.37538 | 4.63805 | 22804 ft | 357 kts | 236° |
| 2026-05-07 05:39 | 40.36071 | 4.61149 | 22829 ft | 361 kts | 236° |
| 2026-05-07 05:39 | 40.34593 | 4.58476 | 22849 ft | 362 kts | 236° |
| 2026-05-07 05:40 | 40.33124 | 4.55823 | 22874 ft | 363 kts | 236° |
| 2026-05-07 05:40 | 40.31632 | 4.53133 | 22902 ft | 363 kts | 236° |
| 2026-05-07 05:40 | 40.30149 | 4.50460 | 22926 ft | 364 kts | 236° |
| 2026-05-07 05:40 | 40.28679 | 4.47809 | 22938 ft | 364 kts | 236° |
| 2026-05-07 05:41 | 40.27186 | 4.45124 | 22943 ft | 364 kts | 236° |
| 2026-05-07 05:41 | 40.25707 | 4.42465 | 22945 ft | 364 kts | 236° |
| 2026-05-07 05:41 | 40.24214 | 4.39781 | 22944 ft | 363 kts | 236° |
| 2026-05-07 05:41 | 40.22726 | 4.37108 | 22944 ft | 363 kts | 236° |
| 2026-05-07 05:42 | 40.21233 | 4.34431 | 22944 ft | 364 kts | 235° |
| 2026-05-07 05:42 | 40.19741 | 4.31757 | 22944 ft | 363 kts | 235° |
| 2026-05-07 05:42 | 40.18256 | 4.29097 | 22942 ft | 363 kts | 235° |
| 2026-05-07 05:42 | 40.16770 | 4.26438 | 22944 ft | 363 kts | 235° |
| 2026-05-07 05:43 | 40.15282 | 4.23776 | 22947 ft | 363 kts | 235° |
| 2026-05-07 05:43 | 40.13801 | 4.21129 | 22944 ft | 363 kts | 235° |
| 2026-05-07 05:43 | 40.12310 | 4.18466 | 22943 ft | 363 kts | 235° |
| 2026-05-07 05:43 | 40.10824 | 4.15815 | 22945 ft | 363 kts | 235° |
| 2026-05-07 05:44 | 40.09330 | 4.13153 | 22941 ft | 363 kts | 235° |
| 2026-05-07 05:44 | 40.07850 | 4.10519 | 22945 ft | 363 kts | 235° |
| 2026-05-07 05:44 | 40.06352 | 4.07852 | 22940 ft | 363 kts | 235° |
| 2026-05-07 05:44 | 40.04861 | 4.05202 | 22943 ft | 363 kts | 235° |
| 2026-05-07 05:45 | 40.03379 | 4.02566 | 22945 ft | 363 kts | 235° |
| 2026-05-07 05:45 | 40.01873 | 3.99892 | 22942 ft | 363 kts | 235° |
| 2026-05-07 05:45 | 40.00396 | 3.97275 | 22945 ft | 362 kts | 235° |
| 2026-05-07 05:45 | 39.98909 | 3.94640 | 22942 ft | 362 kts | 235° |
| 2026-05-07 05:46 | 39.97424 | 3.92011 | 22940 ft | 362 kts | 234° |
| 2026-05-07 05:46 | 39.95925 | 3.89361 | 22932 ft | 362 kts | 235° |
| 2026-05-07 05:46 | 39.94437 | 3.86733 | 22937 ft | 362 kts | 235° |
| 2026-05-07 05:46 | 39.92936 | 3.84080 | 22926 ft | 362 kts | 235° |
| 2026-05-07 05:47 | 39.91445 | 3.81450 | 22681 ft | 363 kts | 234° |
| 2026-05-07 05:47 | 39.89961 | 3.78835 | 22090 ft | 362 kts | 235° |
| 2026-05-07 05:47 | 39.88469 | 3.76204 | 21516 ft | 360 kts | 234° |
| 2026-05-07 05:47 | 39.86991 | 3.73603 | 20962 ft | 359 kts | 234° |
| 2026-05-07 05:48 | 39.85503 | 3.70986 | 20362 ft | 359 kts | 234° |
| 2026-05-07 05:48 | 39.84037 | 3.68410 | 19776 ft | 358 kts | 234° |
| 2026-05-07 05:48 | 39.82565 | 3.65827 | 19204 ft | 358 kts | 234° |
| 2026-05-07 05:48 | 39.81083 | 3.63228 | 18630 ft | 358 kts | 234° |
| 2026-05-07 05:49 | 39.79605 | 3.60635 | 18054 ft | 358 kts | 234° |
| 2026-05-07 05:49 | 39.78116 | 3.58028 | 17495 ft | 357 kts | 234° |
| 2026-05-07 05:49 | 39.76644 | 3.55451 | 16982 ft | 355 kts | 234° |
| 2026-05-07 05:49 | 39.75200 | 3.52926 | 16504 ft | 353 kts | 234° |
| 2026-05-07 05:50 | 39.73724 | 3.50349 | 16018 ft | 350 kts | 234° |
| 2026-05-07 05:50 | 39.72282 | 3.47831 | 15553 ft | 347 kts | 234° |
| 2026-05-07 05:50 | 39.70873 | 3.45328 | 15076 ft | 345 kts | 236° |
| 2026-05-07 05:50 | 39.69579 | 3.42706 | 14605 ft | 343 kts | 240° |
| 2026-05-07 05:51 | 39.68445 | 3.40005 | 14138 ft | 341 kts | 243° |
| 2026-05-07 05:51 | 39.67386 | 3.37262 | 13666 ft | 339 kts | 243° |
| 2026-05-07 05:51 | 39.66342 | 3.34550 | 13176 ft | 338 kts | 243° |
| 2026-05-07 05:51 | 39.65303 | 3.31848 | 12798 ft | 332 kts | 243° |
| 2026-05-07 05:52 | 39.64286 | 3.29207 | 12580 ft | 322 kts | 243° |
| 2026-05-07 05:52 | 39.63302 | 3.26656 | 12436 ft | 310 kts | 243° |
| 2026-05-07 05:52 | 39.62347 | 3.24185 | 12261 ft | 299 kts | 243° |
| 2026-05-07 05:52 | 39.61433 | 3.21819 | 11966 ft | 294 kts | 243° |
| 2026-05-07 05:53 | 39.60525 | 3.19470 | 11590 ft | 293 kts | 243° |
| 2026-05-07 05:53 | 39.59620 | 3.17132 | 11204 ft | 291 kts | 243° |
| 2026-05-07 05:53 | 39.58707 | 3.14775 | 10810 ft | 290 kts | 243° |
| 2026-05-07 05:53 | 39.57813 | 3.12465 | 10450 ft | 288 kts | 243° |
| 2026-05-07 05:54 | 39.56916 | 3.10152 | 10088 ft | 286 kts | 243° |
| 2026-05-07 05:54 | 39.56021 | 3.07850 | 9714 ft | 285 kts | 243° |
| 2026-05-07 05:54 | 39.55136 | 3.05569 | 9327 ft | 284 kts | 242° |
| 2026-05-07 05:54 | 39.54265 | 3.03326 | 8972 ft | 282 kts | 242° |
| 2026-05-07 05:55 | 39.53372 | 3.01036 | 8626 ft | 282 kts | 242° |
| 2026-05-07 05:55 | 39.52492 | 2.98778 | 8250 ft | 282 kts | 242° |
| 2026-05-07 05:55 | 39.51620 | 2.96543 | 7875 ft | 281 kts | 242° |
| 2026-05-07 05:55 | 39.50736 | 2.94275 | 7505 ft | 280 kts | 242° |
| 2026-05-07 05:56 | 39.49868 | 2.92054 | 7155 ft | 278 kts | 242° |
| 2026-05-07 05:56 | 39.48998 | 2.89826 | 6805 ft | 277 kts | 242° |
| 2026-05-07 05:56 | 39.48124 | 2.87590 | 6448 ft | 277 kts | 242° |
| 2026-05-07 05:56 | 39.47258 | 2.85378 | 6082 ft | 277 kts | 242° |
| 2026-05-07 05:57 | 39.46393 | 2.83172 | 5731 ft | 276 kts | 242° |
| 2026-05-07 05:57 | 39.45523 | 2.80952 | 5379 ft | 275 kts | 242° |
| 2026-05-07 05:57 | 39.44658 | 2.78748 | 5038 ft | 275 kts | 242° |
| 2026-05-07 05:57 | 39.43838 | 2.76531 | 4704 ft | 274 kts | 249° |
| 2026-05-07 05:58 | 39.43335 | 2.74171 | 4377 ft | 273 kts | 261° |
| 2026-05-07 05:58 | 39.43079 | 2.71757 | 4053 ft | 271 kts | 264° |
| 2026-05-07 05:58 | 39.42874 | 2.69358 | 3734 ft | 270 kts | 264° |
| 2026-05-07 05:58 | 39.42665 | 2.66925 | 3408 ft | 269 kts | 264° |
| 2026-05-07 05:59 | 39.42450 | 2.64537 | 3129 ft | 266 kts | 264° |
| 2026-05-07 05:59 | 39.42236 | 2.62228 | 3038 ft | 255 kts | 264° |
| 2026-05-07 05:59 | 39.42025 | 2.59994 | 2936 ft | 244 kts | 264° |
| 2026-05-07 05:59 | 39.41877 | 2.57864 | 2763 ft | 240 kts | 275° |
| 2026-05-07 06:00 | 39.42458 | 2.55905 | 2407 ft | 233 kts | 318° |
| 2026-05-07 06:00 | 39.43805 | 2.54984 | 2262 ft | 214 kts | 1° |
| 2026-05-07 06:00 | 39.45231 | 2.55274 | 2277 ft | 203 kts | 22° |
| 2026-05-07 06:00 | 39.46472 | 2.55966 | 2254 ft | 188 kts | 32° |
| 2026-05-07 06:01 | 39.47559 | 2.56887 | 2265 ft | 184 kts | 44° |
| 2026-05-07 06:01 | 39.48428 | 2.58083 | 2258 ft | 182 kts | 54° |
| 2026-05-07 06:01 | 39.49156 | 2.59379 | 2149 ft | 173 kts | 58° |
| 2026-05-07 06:01 | 39.49800 | 2.60656 | 1893 ft | 169 kts | 60° |
| 2026-05-07 06:02 | 39.50413 | 2.61944 | 1640 ft | 165 kts | 60° |
| 2026-05-07 06:02 | 39.50993 | 2.63182 | 1407 ft | 160 kts | 60° |
| 2026-05-07 06:02 | 39.51563 | 2.64394 | 1187 ft | 154 kts | 59° |
| 2026-05-07 06:02 | 39.52095 | 2.65523 | 1009 ft | 139 kts | 59° |
| 2026-05-07 06:03 | 39.52583 | 2.66557 | 818 ft | 132 kts | 59° |
| 2026-05-07 06:03 | 39.53062 | 2.67569 | 652 ft | 131 kts | 59° |
| 2026-05-07 06:03 | 39.53542 | 2.68587 | 497 ft | 131 kts | 59° |
| 2026-05-07 06:03 | 39.54014 | 2.69595 | 304 ft | 131 kts | 59° |
| 2026-05-07 06:04 | 39.54484 | 2.70585 | 120 ft | 130 kts | 59° |
| 2026-05-07 06:04 | 39.54952 | 2.71573 | 13 ft | 122 kts | 58° |
| 2026-05-07 06:04 | 39.55318 | 2.72350 | 4 ft | 75 kts | 58° |
| 2026-05-07 06:04 | 39.55487 | 2.72792 | 7 ft | 43 kts | 82° |
| 2026-05-07 06:05 | 39.55499 | 2.73102 | 10 ft | 23 kts | 88° |
| 2026-05-07 06:05 | 39.55548 | 2.73281 | 13 ft | 20 kts | 58° |
| 2026-05-07 06:05 | 39.55618 | 2.73423 | 14 ft | 14 kts | 64° |
| 2026-05-07 06:05 | 39.55591 | 2.73526 | 16 ft | 12 kts | 150° |
| 2026-05-07 06:06 | 39.55515 | 2.73575 | 19 ft | 11 kts | 175° |
| 2026-05-07 06:06 | 39.55466 | 2.73499 | 19 ft | 12 kts | 241° |
| 2026-05-07 06:06 | 39.55421 | 2.73402 | 19 ft | 11 kts | 237° |
| 2026-05-07 06:06 | 39.55373 | 2.73384 | 19 ft | 6 kts | 159° |
| 2026-05-07 06:07 | 39.55338 | 2.73402 | 20 ft | 4 kts | 160° |
| 2026-05-07 06:07 | 39.55322 | 2.73409 | 21 ft | 0 kts | 160° |